sensor_id;sensor_type;location;lat;lon;timestamp;P1;durP1;ratioP1;P2;durP2;ratioP2
23730;SDS011;12046;44.702;10.622;2022-11-21T00:00:14;25.23;;;18.63;;
23730;SDS011;12046;44.702;10.622;2022-11-21T00:02:40;24.17;;;18.30;;
23730;SDS011;12046;44.702;10.622;2022-11-21T00:05:07;22.67;;;17.67;;
23730;SDS011;12046;44.702;10.622;2022-11-21T00:07:33;21.67;;;16.55;;
23730;SDS011;12046;44.702;10.622;2022-11-21T00:09:59;22.88;;;16.55;;
23730;SDS011;12046;44.702;10.622;2022-11-21T00:12:25;31.65;;;21.00;;
23730;SDS011;12046;44.702;10.622;2022-11-21T00:14:51;29.25;;;22.08;;
23730;SDS011;12046;44.702;10.622;2022-11-21T00:17:17;24.65;;;16.98;;
23730;SDS011;12046;44.702;10.622;2022-11-21T00:19:43;24.88;;;16.67;;
23730;SDS011;12046;44.702;10.622;2022-11-21T00:22:09;24.40;;;16.77;;
23730;SDS011;12046;44.702;10.622;2022-11-21T00:24:35;22.58;;;17.20;;
23730;SDS011;12046;44.702;10.622;2022-11-21T00:27:01;23.63;;;16.00;;
23730;SDS011;12046;44.702;10.622;2022-11-21T00:29:27;24.48;;;17.02;;
23730;SDS011;12046;44.702;10.622;2022-11-21T00:31:53;29.77;;;20.92;;
23730;SDS011;12046;44.702;10.622;2022-11-21T00:34:19;24.95;;;19.33;;
23730;SDS011;12046;44.702;10.622;2022-11-21T00:36:45;24.25;;;17.33;;
23730;SDS011;12046;44.702;10.622;2022-11-21T00:39:11;22.50;;;16.77;;
23730;SDS011;12046;44.702;10.622;2022-11-21T00:41:37;22.00;;;16.00;;
23730;SDS011;12046;44.702;10.622;2022-11-21T00:44:03;23.70;;;15.32;;
23730;SDS011;12046;44.702;10.622;2022-11-21T00:46:29;24.67;;;17.55;;
23730;SDS011;12046;44.702;10.622;2022-11-21T00:48:55;23.48;;;16.15;;
23730;SDS011;12046;44.702;10.622;2022-11-21T00:51:21;20.05;;;15.23;;
23730;SDS011;12046;44.702;10.622;2022-11-21T00:53:47;24.02;;;16.33;;
23730;SDS011;12046;44.702;10.622;2022-11-21T00:56:13;27.80;;;19.02;;
23730;SDS011;12046;44.702;10.622;2022-11-21T00:58:39;20.80;;;15.23;;
23730;SDS011;12046;44.702;10.622;2022-11-21T01:01:06;19.95;;;13.90;;
23730;SDS011;12046;44.702;10.622;2022-11-21T01:03:36;20.70;;;14.15;;
23730;SDS011;12046;44.702;10.622;2022-11-21T01:06:03;19.85;;;14.68;;
23730;SDS011;12046;44.702;10.622;2022-11-21T01:08:31;21.10;;;16.15;;
23730;SDS011;12046;44.702;10.622;2022-11-21T01:11:01;18.20;;;14.38;;
23730;SDS011;12046;44.702;10.622;2022-11-21T01:13:33;19.48;;;14.40;;
23730;SDS011;12046;44.702;10.622;2022-11-21T01:16:03;17.52;;;12.95;;
23730;SDS011;12046;44.702;10.622;2022-11-21T01:18:30;17.92;;;12.27;;
23730;SDS011;12046;44.702;10.622;2022-11-21T01:21:05;21.02;;;13.95;;
23730;SDS011;12046;44.702;10.622;2022-11-21T01:23:32;18.33;;;13.02;;
23730;SDS011;12046;44.702;10.622;2022-11-21T01:26:02;19.08;;;13.60;;
23730;SDS011;12046;44.702;10.622;2022-11-21T01:28:39;18.52;;;13.40;;
23730;SDS011;12046;44.702;10.622;2022-11-21T01:31:12;20.73;;;13.65;;
23730;SDS011;12046;44.702;10.622;2022-11-21T01:33:43;20.15;;;13.18;;
23730;SDS011;12046;44.702;10.622;2022-11-21T01:36:10;21.05;;;14.70;;
23730;SDS011;12046;44.702;10.622;2022-11-21T01:38:39;21.15;;;15.00;;
23730;SDS011;12046;44.702;10.622;2022-11-21T01:41:07;23.33;;;16.45;;
23730;SDS011;12046;44.702;10.622;2022-11-21T01:43:34;21.50;;;13.95;;
23730;SDS011;12046;44.702;10.622;2022-11-21T01:54:30;31.35;;;19.50;;
23730;SDS011;12046;44.702;10.622;2022-11-21T02:02:32;19.25;;;13.93;;
23730;SDS011;12046;44.702;10.622;2022-11-21T02:05:00;19.00;;;12.80;;
23730;SDS011;12046;44.702;10.622;2022-11-21T02:07:29;14.80;;;12.25;;
23730;SDS011;12046;44.702;10.622;2022-11-21T02:10:00;15.35;;;11.30;;
23730;SDS011;12046;44.702;10.622;2022-11-21T02:12:43;14.48;;;11.23;;
23730;SDS011;12046;44.702;10.622;2022-11-21T02:15:15;15.85;;;10.48;;
23730;SDS011;12046;44.702;10.622;2022-11-21T02:17:42;17.45;;;11.20;;
23730;SDS011;12046;44.702;10.622;2022-11-21T02:20:11;15.60;;;10.82;;
23730;SDS011;12046;44.702;10.622;2022-11-21T02:25:30;20.30;;;11.43;;
23730;SDS011;12046;44.702;10.622;2022-11-21T02:28:02;15.45;;;10.90;;
23730;SDS011;12046;44.702;10.622;2022-11-21T02:30:30;14.50;;;10.70;;
23730;SDS011;12046;44.702;10.622;2022-11-21T02:32:58;14.65;;;10.52;;
23730;SDS011;12046;44.702;10.622;2022-11-21T02:35:24;14.95;;;11.60;;
23730;SDS011;12046;44.702;10.622;2022-11-21T02:37:53;14.50;;;11.02;;
23730;SDS011;12046;44.702;10.622;2022-11-21T02:40:37;14.68;;;11.13;;
23730;SDS011;12046;44.702;10.622;2022-11-21T02:43:15;15.02;;;10.05;;
23730;SDS011;12046;44.702;10.622;2022-11-21T02:45:46;13.05;;;9.55;;
23730;SDS011;12046;44.702;10.622;2022-11-21T02:48:12;14.77;;;9.88;;
23730;SDS011;12046;44.702;10.622;2022-11-21T02:50:41;13.30;;;9.88;;
23730;SDS011;12046;44.702;10.622;2022-11-21T02:53:09;14.40;;;9.77;;
23730;SDS011;12046;44.702;10.622;2022-11-21T02:55:37;13.77;;;9.98;;
23730;SDS011;12046;44.702;10.622;2022-11-21T02:58:03;15.52;;;11.02;;
23730;SDS011;12046;44.702;10.622;2022-11-21T03:00:30;15.23;;;11.13;;
23730;SDS011;12046;44.702;10.622;2022-11-21T03:02:56;14.60;;;10.70;;
23730;SDS011;12046;44.702;10.622;2022-11-21T03:05:22;14.80;;;11.25;;
23730;SDS011;12046;44.702;10.622;2022-11-21T03:07:48;18.77;;;11.93;;
23730;SDS011;12046;44.702;10.622;2022-11-21T03:10:14;14.98;;;11.00;;
23730;SDS011;12046;44.702;10.622;2022-11-21T03:12:40;15.13;;;10.60;;
23730;SDS011;12046;44.702;10.622;2022-11-21T03:15:09;14.73;;;10.40;;
23730;SDS011;12046;44.702;10.622;2022-11-21T03:17:36;17.25;;;10.82;;
23730;SDS011;12046;44.702;10.622;2022-11-21T03:20:02;16.75;;;11.13;;
23730;SDS011;12046;44.702;10.622;2022-11-21T03:22:29;15.10;;;10.80;;
23730;SDS011;12046;44.702;10.622;2022-11-21T03:24:55;15.68;;;10.40;;
23730;SDS011;12046;44.702;10.622;2022-11-21T03:27:21;13.00;;;9.27;;
23730;SDS011;12046;44.702;10.622;2022-11-21T03:29:47;14.50;;;9.77;;
23730;SDS011;12046;44.702;10.622;2022-11-21T03:32:13;13.18;;;9.85;;
23730;SDS011;12046;44.702;10.622;2022-11-21T03:34:39;12.20;;;8.90;;
23730;SDS011;12046;44.702;10.622;2022-11-21T03:37:05;12.75;;;9.13;;
23730;SDS011;12046;44.702;10.622;2022-11-21T03:39:31;12.30;;;8.55;;
23730;SDS011;12046;44.702;10.622;2022-11-21T03:41:56;11.88;;;8.50;;
23730;SDS011;12046;44.702;10.622;2022-11-21T03:44:23;13.82;;;9.15;;
23730;SDS011;12046;44.702;10.622;2022-11-21T03:46:48;13.23;;;9.57;;
23730;SDS011;12046;44.702;10.622;2022-11-21T03:49:14;18.30;;;11.40;;
23730;SDS011;12046;44.702;10.622;2022-11-21T03:51:41;15.10;;;9.27;;
23730;SDS011;12046;44.702;10.622;2022-11-21T03:54:07;14.02;;;10.02;;
23730;SDS011;12046;44.702;10.622;2022-11-21T03:56:34;13.07;;;9.40;;
23730;SDS011;12046;44.702;10.622;2022-11-21T03:59:00;14.38;;;10.70;;
23730;SDS011;12046;44.702;10.622;2022-11-21T04:01:27;13.52;;;10.38;;
23730;SDS011;12046;44.702;10.622;2022-11-21T04:03:53;14.68;;;11.07;;
23730;SDS011;12046;44.702;10.622;2022-11-21T04:06:20;13.93;;;10.43;;
23730;SDS011;12046;44.702;10.622;2022-11-21T04:08:47;13.30;;;9.10;;
23730;SDS011;12046;44.702;10.622;2022-11-21T04:11:14;17.15;;;11.45;;
23730;SDS011;12046;44.702;10.622;2022-11-21T04:13:40;16.17;;;12.63;;
23730;SDS011;12046;44.702;10.622;2022-11-21T04:16:06;16.15;;;10.77;;
23730;SDS011;12046;44.702;10.622;2022-11-21T04:18:32;14.90;;;11.55;;
23730;SDS011;12046;44.702;10.622;2022-11-21T04:20:59;13.80;;;9.02;;
23730;SDS011;12046;44.702;10.622;2022-11-21T04:23:27;14.25;;;10.18;;
23730;SDS011;12046;44.702;10.622;2022-11-21T04:25:53;16.10;;;11.07;;
23730;SDS011;12046;44.702;10.622;2022-11-21T04:28:20;14.85;;;8.90;;
23730;SDS011;12046;44.702;10.622;2022-11-21T04:30:46;14.85;;;9.70;;
23730;SDS011;12046;44.702;10.622;2022-11-21T04:33:13;16.05;;;10.85;;
23730;SDS011;12046;44.702;10.622;2022-11-21T04:35:41;11.52;;;8.55;;
23730;SDS011;12046;44.702;10.622;2022-11-21T04:38:08;11.23;;;7.60;;
23730;SDS011;12046;44.702;10.622;2022-11-21T04:40:34;10.35;;;7.25;;
23730;SDS011;12046;44.702;10.622;2022-11-21T04:43:00;11.25;;;8.00;;
23730;SDS011;12046;44.702;10.622;2022-11-21T04:45:26;11.60;;;8.75;;
23730;SDS011;12046;44.702;10.622;2022-11-21T04:47:52;9.68;;;7.55;;
23730;SDS011;12046;44.702;10.622;2022-11-21T04:50:18;10.55;;;7.50;;
23730;SDS011;12046;44.702;10.622;2022-11-21T04:52:48;11.20;;;7.70;;
23730;SDS011;12046;44.702;10.622;2022-11-21T04:55:15;9.80;;;7.45;;
23730;SDS011;12046;44.702;10.622;2022-11-21T04:57:41;10.88;;;9.20;;
23730;SDS011;12046;44.702;10.622;2022-11-21T05:00:07;10.50;;;8.70;;
23730;SDS011;12046;44.702;10.622;2022-11-21T05:02:33;13.65;;;8.95;;
23730;SDS011;12046;44.702;10.622;2022-11-21T05:04:59;12.18;;;8.32;;
23730;SDS011;12046;44.702;10.622;2022-11-21T05:07:25;9.65;;;6.82;;
23730;SDS011;12046;44.702;10.622;2022-11-21T05:09:51;11.20;;;8.95;;
23730;SDS011;12046;44.702;10.622;2022-11-21T05:12:17;11.75;;;7.30;;
23730;SDS011;12046;44.702;10.622;2022-11-21T05:15:01;10.43;;;7.60;;
23730;SDS011;12046;44.702;10.622;2022-11-21T05:17:27;11.13;;;8.05;;
23730;SDS011;12046;44.702;10.622;2022-11-21T05:19:54;10.05;;;7.72;;
23730;SDS011;12046;44.702;10.622;2022-11-21T05:22:20;11.23;;;7.38;;
23730;SDS011;12046;44.702;10.622;2022-11-21T05:24:45;10.63;;;7.63;;
23730;SDS011;12046;44.702;10.622;2022-11-21T05:27:11;11.40;;;7.53;;
23730;SDS011;12046;44.702;10.622;2022-11-21T05:29:37;8.82;;;6.13;;
23730;SDS011;12046;44.702;10.622;2022-11-21T05:32:03;11.88;;;6.97;;
23730;SDS011;12046;44.702;10.622;2022-11-21T05:34:29;10.38;;;7.15;;
23730;SDS011;12046;44.702;10.622;2022-11-21T05:36:56;10.73;;;6.97;;
23730;SDS011;12046;44.702;10.622;2022-11-21T05:39:24;9.65;;;7.72;;
23730;SDS011;12046;44.702;10.622;2022-11-21T05:41:51;15.57;;;9.15;;
23730;SDS011;12046;44.702;10.622;2022-11-21T05:44:17;12.13;;;7.95;;
23730;SDS011;12046;44.702;10.622;2022-11-21T05:46:44;10.95;;;9.00;;
23730;SDS011;12046;44.702;10.622;2022-11-21T05:49:10;9.65;;;7.68;;
23730;SDS011;12046;44.702;10.622;2022-11-21T05:51:36;9.77;;;7.15;;
23730;SDS011;12046;44.702;10.622;2022-11-21T05:54:02;13.30;;;7.65;;
23730;SDS011;12046;44.702;10.622;2022-11-21T05:56:29;10.27;;;6.80;;
23730;SDS011;12046;44.702;10.622;2022-11-21T05:58:56;10.10;;;6.25;;
23730;SDS011;12046;44.702;10.622;2022-11-21T06:01:23;8.80;;;6.75;;
23730;SDS011;12046;44.702;10.622;2022-11-21T06:04:08;9.57;;;6.30;;
23730;SDS011;12046;44.702;10.622;2022-11-21T06:06:34;8.90;;;6.40;;
23730;SDS011;12046;44.702;10.622;2022-11-21T06:09:01;10.38;;;6.25;;
23730;SDS011;12046;44.702;10.622;2022-11-21T06:11:28;7.63;;;5.78;;
23730;SDS011;12046;44.702;10.622;2022-11-21T06:13:54;7.03;;;6.20;;
23730;SDS011;12046;44.702;10.622;2022-11-21T06:16:20;9.20;;;5.97;;
23730;SDS011;12046;44.702;10.622;2022-11-21T06:18:48;9.30;;;5.82;;
23730;SDS011;12046;44.702;10.622;2022-11-21T06:21:23;8.18;;;6.28;;
23730;SDS011;12046;44.702;10.622;2022-11-21T06:23:52;7.25;;;5.55;;
23730;SDS011;12046;44.702;10.622;2022-11-21T06:26:20;11.25;;;6.32;;
23730;SDS011;12046;44.702;10.622;2022-11-21T06:28:48;8.43;;;6.28;;
23730;SDS011;12046;44.702;10.622;2022-11-21T06:31:15;11.18;;;5.63;;
23730;SDS011;12046;44.702;10.622;2022-11-21T06:33:46;8.32;;;5.55;;
23730;SDS011;12046;44.702;10.622;2022-11-21T06:36:13;7.82;;;5.00;;
23730;SDS011;12046;44.702;10.622;2022-11-21T06:38:40;6.07;;;4.70;;
23730;SDS011;12046;44.702;10.622;2022-11-21T06:41:11;5.28;;;4.32;;
23730;SDS011;12046;44.702;10.622;2022-11-21T06:43:41;6.25;;;4.68;;
23730;SDS011;12046;44.702;10.622;2022-11-21T06:46:07;7.57;;;4.50;;
23730;SDS011;12046;44.702;10.622;2022-11-21T06:48:34;7.20;;;4.72;;
23730;SDS011;12046;44.702;10.622;2022-11-21T06:51:05;5.72;;;4.07;;
23730;SDS011;12046;44.702;10.622;2022-11-21T06:53:32;9.40;;;4.25;;
23730;SDS011;12046;44.702;10.622;2022-11-21T06:56:02;6.53;;;4.32;;
23730;SDS011;12046;44.702;10.622;2022-11-21T06:58:29;4.50;;;3.63;;
23730;SDS011;12046;44.702;10.622;2022-11-21T07:00:55;5.85;;;3.70;;
23730;SDS011;12046;44.702;10.622;2022-11-21T07:03:22;6.45;;;4.22;;
23730;SDS011;12046;44.702;10.622;2022-11-21T07:05:48;7.03;;;3.53;;
23730;SDS011;12046;44.702;10.622;2022-11-21T07:08:14;5.40;;;3.65;;
23730;SDS011;12046;44.702;10.622;2022-11-21T07:10:40;6.35;;;4.20;;
23730;SDS011;12046;44.702;10.622;2022-11-21T07:13:06;6.63;;;4.15;;
23730;SDS011;12046;44.702;10.622;2022-11-21T07:15:47;6.18;;;4.10;;
23730;SDS011;12046;44.702;10.622;2022-11-21T07:18:17;5.90;;;4.30;;
23730;SDS011;12046;44.702;10.622;2022-11-21T07:20:44;6.05;;;3.78;;
23730;SDS011;12046;44.702;10.622;2022-11-21T07:23:10;7.03;;;4.30;;
23730;SDS011;12046;44.702;10.622;2022-11-21T07:25:36;7.95;;;4.22;;
23730;SDS011;12046;44.702;10.622;2022-11-21T07:28:04;10.93;;;4.43;;
23730;SDS011;12046;44.702;10.622;2022-11-21T07:30:32;9.85;;;4.13;;
23730;SDS011;12046;44.702;10.622;2022-11-21T07:32:59;5.13;;;4.00;;
23730;SDS011;12046;44.702;10.622;2022-11-21T07:35:27;4.82;;;3.60;;
23730;SDS011;12046;44.702;10.622;2022-11-21T07:37:53;8.07;;;4.03;;
23730;SDS011;12046;44.702;10.622;2022-11-21T07:40:19;6.78;;;4.40;;
23730;SDS011;12046;44.702;10.622;2022-11-21T07:42:45;14.45;;;4.53;;
23730;SDS011;12046;44.702;10.622;2022-11-21T07:45:12;5.78;;;3.63;;
23730;SDS011;12046;44.702;10.622;2022-11-21T07:47:38;6.63;;;4.10;;
23730;SDS011;12046;44.702;10.622;2022-11-21T07:50:05;8.05;;;4.18;;
23730;SDS011;12046;44.702;10.622;2022-11-21T07:52:32;6.72;;;3.83;;
23730;SDS011;12046;44.702;10.622;2022-11-21T07:54:58;11.07;;;4.25;;
23730;SDS011;12046;44.702;10.622;2022-11-21T07:57:27;5.70;;;4.82;;
23730;SDS011;12046;44.702;10.622;2022-11-21T07:59:53;8.63;;;4.38;;
23730;SDS011;12046;44.702;10.622;2022-11-21T08:02:20;5.80;;;4.45;;
23730;SDS011;12046;44.702;10.622;2022-11-21T08:04:47;7.97;;;4.30;;
23730;SDS011;12046;44.702;10.622;2022-11-21T08:07:13;7.93;;;4.40;;
23730;SDS011;12046;44.702;10.622;2022-11-21T08:09:40;5.20;;;3.40;;
23730;SDS011;12046;44.702;10.622;2022-11-21T08:12:06;8.43;;;3.75;;
23730;SDS011;12046;44.702;10.622;2022-11-21T08:14:33;13.38;;;4.68;;
23730;SDS011;12046;44.702;10.622;2022-11-21T08:16:59;7.55;;;4.57;;
23730;SDS011;12046;44.702;10.622;2022-11-21T08:19:25;4.20;;;3.72;;
23730;SDS011;12046;44.702;10.622;2022-11-21T08:21:50;4.55;;;3.58;;
23730;SDS011;12046;44.702;10.622;2022-11-21T08:24:16;4.78;;;3.50;;
23730;SDS011;12046;44.702;10.622;2022-11-21T08:26:43;5.53;;;3.60;;
23730;SDS011;12046;44.702;10.622;2022-11-21T08:29:10;5.00;;;3.78;;
23730;SDS011;12046;44.702;10.622;2022-11-21T08:31:36;6.18;;;3.80;;
23730;SDS011;12046;44.702;10.622;2022-11-21T08:34:03;6.22;;;4.20;;
23730;SDS011;12046;44.702;10.622;2022-11-21T08:36:29;6.35;;;3.60;;
23730;SDS011;12046;44.702;10.622;2022-11-21T08:38:55;4.72;;;3.75;;
23730;SDS011;12046;44.702;10.622;2022-11-21T08:41:21;4.07;;;3.47;;
23730;SDS011;12046;44.702;10.622;2022-11-21T08:44:06;4.30;;;3.25;;
23730;SDS011;12046;44.702;10.622;2022-11-21T08:46:33;4.32;;;3.28;;
23730;SDS011;12046;44.702;10.622;2022-11-21T08:49:04;4.75;;;3.65;;
23730;SDS011;12046;44.702;10.622;2022-11-21T08:51:33;4.13;;;3.60;;
23730;SDS011;12046;44.702;10.622;2022-11-21T08:53:59;4.38;;;3.78;;
23730;SDS011;12046;44.702;10.622;2022-11-21T08:56:25;4.90;;;4.07;;
23730;SDS011;12046;44.702;10.622;2022-11-21T08:58:52;4.50;;;4.10;;
23730;SDS011;12046;44.702;10.622;2022-11-21T09:01:18;4.55;;;3.97;;
23730;SDS011;12046;44.702;10.622;2022-11-21T09:03:44;5.10;;;3.42;;
23730;SDS011;12046;44.702;10.622;2022-11-21T09:06:12;4.00;;;3.10;;
23730;SDS011;12046;44.702;10.622;2022-11-21T09:08:38;3.95;;;2.70;;
23730;SDS011;12046;44.702;10.622;2022-11-21T09:11:07;5.22;;;3.17;;
23730;SDS011;12046;44.702;10.622;2022-11-21T09:13:34;3.95;;;3.55;;
23730;SDS011;12046;44.702;10.622;2022-11-21T09:16:00;5.00;;;4.45;;
23730;SDS011;12046;44.702;10.622;2022-11-21T09:18:45;4.95;;;4.43;;
23730;SDS011;12046;44.702;10.622;2022-11-21T09:21:15;4.82;;;4.32;;
23730;SDS011;12046;44.702;10.622;2022-11-21T09:23:42;5.78;;;5.28;;
23730;SDS011;12046;44.702;10.622;2022-11-21T09:26:08;7.65;;;5.13;;
23730;SDS011;12046;44.702;10.622;2022-11-21T09:28:34;7.60;;;5.35;;
23730;SDS011;12046;44.702;10.622;2022-11-21T09:31:01;8.27;;;5.35;;
23730;SDS011;12046;44.702;10.622;2022-11-21T09:33:27;6.20;;;5.45;;
23730;SDS011;12046;44.702;10.622;2022-11-21T09:35:57;6.38;;;5.70;;
23730;SDS011;12046;44.702;10.622;2022-11-21T09:38:24;7.05;;;6.35;;
23730;SDS011;12046;44.702;10.622;2022-11-21T09:40:51;11.60;;;7.72;;
23730;SDS011;12046;44.702;10.622;2022-11-21T09:43:52;9.35;;;7.93;;
23730;SDS011;12046;44.702;10.622;2022-11-21T09:46:29;9.00;;;7.50;;
23730;SDS011;12046;44.702;10.622;2022-11-21T09:49:01;11.70;;;7.88;;
23730;SDS011;12046;44.702;10.622;2022-11-21T09:51:30;10.05;;;6.82;;
23730;SDS011;12046;44.702;10.622;2022-11-21T09:54:04;7.75;;;6.78;;
23730;SDS011;12046;44.702;10.622;2022-11-21T09:56:44;6.90;;;6.05;;
23730;SDS011;12046;44.702;10.622;2022-11-21T10:01:59;8.23;;;7.40;;
23730;SDS011;12046;44.702;10.622;2022-11-21T10:04:25;8.18;;;7.28;;
23730;SDS011;12046;44.702;10.622;2022-11-21T10:07:10;8.77;;;7.93;;
23730;SDS011;12046;44.702;10.622;2022-11-21T10:09:53;9.98;;;7.85;;
23730;SDS011;12046;44.702;10.622;2022-11-21T10:15:28;10.63;;;8.40;;
23730;SDS011;12046;44.702;10.622;2022-11-21T10:28:56;9.98;;;8.98;;
23730;SDS011;12046;44.702;10.622;2022-11-21T10:31:28;13.32;;;9.38;;
23730;SDS011;12046;44.702;10.622;2022-11-21T10:34:01;10.30;;;9.40;;
23730;SDS011;12046;44.702;10.622;2022-11-21T10:36:35;12.30;;;9.60;;
23730;SDS011;12046;44.702;10.622;2022-11-21T10:39:14;11.93;;;10.57;;
23730;SDS011;12046;44.702;10.622;2022-11-21T10:41:57;10.95;;;9.93;;
23730;SDS011;12046;44.702;10.622;2022-11-21T10:44:36;10.38;;;9.38;;
23730;SDS011;12046;44.702;10.622;2022-11-21T10:47:21;11.18;;;10.10;;
23730;SDS011;12046;44.702;10.622;2022-11-21T10:49:54;11.77;;;10.57;;
23730;SDS011;12046;44.702;10.622;2022-11-21T10:52:22;11.57;;;10.52;;
23730;SDS011;12046;44.702;10.622;2022-11-21T10:57:27;11.98;;;10.88;;
23730;SDS011;12046;44.702;10.622;2022-11-21T10:59:59;11.80;;;10.55;;
23730;SDS011;12046;44.702;10.622;2022-11-21T11:02:41;14.95;;;12.05;;
23730;SDS011;12046;44.702;10.622;2022-11-21T11:05:33;14.23;;;12.38;;
23730;SDS011;12046;44.702;10.622;2022-11-21T11:08:08;14.65;;;13.13;;
23730;SDS011;12046;44.702;10.622;2022-11-21T11:10:43;15.80;;;14.20;;
23730;SDS011;12046;44.702;10.622;2022-11-21T11:13:24;15.82;;;14.30;;
23730;SDS011;12046;44.702;10.622;2022-11-21T11:18:28;16.67;;;14.00;;
23730;SDS011;12046;44.702;10.622;2022-11-21T11:21:36;14.98;;;13.57;;
23730;SDS011;12046;44.702;10.622;2022-11-21T11:23:53;14.55;;;13.15;;
23730;SDS011;12046;44.702;10.622;2022-11-21T11:29:13;15.73;;;14.23;;
23730;SDS011;12046;44.702;10.622;2022-11-21T11:34:12;13.45;;;12.15;;
23730;SDS011;12046;44.702;10.622;2022-11-21T11:39:16;15.60;;;14.02;;
23730;SDS011;12046;44.702;10.622;2022-11-21T11:47:58;12.63;;;11.43;;
23730;SDS011;12046;44.702;10.622;2022-11-21T11:50:38;13.45;;;12.05;;
23730;SDS011;12046;44.702;10.622;2022-11-21T11:53:10;13.45;;;12.05;;
23730;SDS011;12046;44.702;10.622;2022-11-21T11:55:56;14.05;;;12.65;;
23730;SDS011;12046;44.702;10.622;2022-11-21T11:58:37;13.82;;;12.55;;
23730;SDS011;12046;44.702;10.622;2022-11-21T12:06:30;14.00;;;12.55;;
23730;SDS011;12046;44.702;10.622;2022-11-21T12:14:35;12.30;;;11.10;;
23730;SDS011;12046;44.702;10.622;2022-11-21T12:20:20;13.10;;;11.70;;
23730;SDS011;12046;44.702;10.622;2022-11-21T12:22:54;12.68;;;11.48;;
23730;SDS011;12046;44.702;10.622;2022-11-21T12:25:26;12.57;;;11.38;;
23730;SDS011;12046;44.702;10.622;2022-11-21T12:27:54;13.23;;;11.13;;
23730;SDS011;12046;44.702;10.622;2022-11-21T12:30:34;12.77;;;11.48;;
23730;SDS011;12046;44.702;10.622;2022-11-21T12:33:24;13.55;;;12.25;;
23730;SDS011;12046;44.702;10.622;2022-11-21T12:36:10;12.05;;;10.85;;
23730;SDS011;12046;44.702;10.622;2022-11-21T12:39:05;14.65;;;12.00;;
23730;SDS011;12046;44.702;10.622;2022-11-21T12:41:59;12.70;;;11.40;;
23730;SDS011;12046;44.702;10.622;2022-11-21T12:45:02;14.35;;;12.30;;
23730;SDS011;12046;44.702;10.622;2022-11-21T12:54:01;13.23;;;11.82;;
23730;SDS011;12046;44.702;10.622;2022-11-21T12:56:56;13.95;;;12.45;;
23730;SDS011;12046;44.702;10.622;2022-11-21T13:05:18;13.75;;;12.35;;
23730;SDS011;12046;44.702;10.622;2022-11-21T13:07:57;14.82;;;13.35;;
23730;SDS011;12046;44.702;10.622;2022-11-21T13:10:38;13.07;;;11.77;;
23730;SDS011;12046;44.702;10.622;2022-11-21T13:13:36;14.43;;;12.20;;
23730;SDS011;12046;44.702;10.622;2022-11-21T13:16:10;12.68;;;11.23;;
23730;SDS011;12046;44.702;10.622;2022-11-21T13:21:48;13.68;;;12.20;;
23730;SDS011;12046;44.702;10.622;2022-11-21T13:27:54;14.18;;;11.50;;
23730;SDS011;12046;44.702;10.622;2022-11-21T13:32:36;12.93;;;11.55;;
23730;SDS011;12046;44.702;10.622;2022-11-21T13:40:36;13.95;;;12.40;;
23730;SDS011;12046;44.702;10.622;2022-11-21T13:45:50;13.20;;;11.80;;
23730;SDS011;12046;44.702;10.622;2022-11-21T13:56:25;12.63;;;11.30;;
23730;SDS011;12046;44.702;10.622;2022-11-21T14:07:25;13.57;;;10.65;;
23730;SDS011;12046;44.702;10.622;2022-11-21T14:09:55;12.60;;;11.13;;
23730;SDS011;12046;44.702;10.622;2022-11-21T14:12:28;14.88;;;11.18;;
23730;SDS011;12046;44.702;10.622;2022-11-21T14:20:14;15.07;;;11.20;;
23730;SDS011;12046;44.702;10.622;2022-11-21T14:22:55;16.27;;;11.00;;
23730;SDS011;12046;44.702;10.622;2022-11-21T14:25:27;13.38;;;11.00;;
23730;SDS011;12046;44.702;10.622;2022-11-21T14:28:08;14.30;;;10.43;;
23730;SDS011;12046;44.702;10.622;2022-11-21T14:30:38;14.25;;;10.40;;
23730;SDS011;12046;44.702;10.622;2022-11-21T14:33:24;16.63;;;10.57;;
23730;SDS011;12046;44.702;10.622;2022-11-21T14:36:00;14.35;;;10.75;;
23730;SDS011;12046;44.702;10.622;2022-11-21T14:38:27;15.85;;;12.13;;
23730;SDS011;12046;44.702;10.622;2022-11-21T14:41:55;16.30;;;11.85;;
23730;SDS011;12046;44.702;10.622;2022-11-21T14:46:27;16.70;;;11.15;;
23730;SDS011;12046;44.702;10.622;2022-11-21T14:48:54;15.15;;;11.38;;
23730;SDS011;12046;44.702;10.622;2022-11-21T14:51:24;13.43;;;11.27;;
23730;SDS011;12046;44.702;10.622;2022-11-21T14:53:53;16.95;;;12.02;;
23730;SDS011;12046;44.702;10.622;2022-11-21T14:56:26;17.98;;;12.27;;
23730;SDS011;12046;44.702;10.622;2022-11-21T14:59:17;18.13;;;11.65;;
23730;SDS011;12046;44.702;10.622;2022-11-21T15:02:11;17.17;;;11.35;;
23730;SDS011;12046;44.702;10.622;2022-11-21T15:04:40;16.50;;;11.35;;
23730;SDS011;12046;44.702;10.622;2022-11-21T15:07:18;15.77;;;11.38;;
23730;SDS011;12046;44.702;10.622;2022-11-21T15:09:52;18.35;;;12.90;;
23730;SDS011;12046;44.702;10.622;2022-11-21T15:12:45;16.23;;;12.55;;
23730;SDS011;12046;44.702;10.622;2022-11-21T15:17:42;20.17;;;13.15;;
23730;SDS011;12046;44.702;10.622;2022-11-21T15:22:37;16.40;;;13.68;;
23730;SDS011;12046;44.702;10.622;2022-11-21T15:28:19;20.08;;;16.30;;
23730;SDS011;12046;44.702;10.622;2022-11-21T15:30:40;21.02;;;17.27;;
23730;SDS011;12046;44.702;10.622;2022-11-21T15:33:07;21.98;;;17.48;;
23730;SDS011;12046;44.702;10.622;2022-11-21T15:35:40;23.80;;;19.23;;
23730;SDS011;12046;44.702;10.622;2022-11-21T15:41:00;24.13;;;19.73;;
23730;SDS011;12046;44.702;10.622;2022-11-21T15:46:04;23.55;;;21.00;;
23730;SDS011;12046;44.702;10.622;2022-11-21T15:48:55;25.15;;;20.30;;
23730;SDS011;12046;44.702;10.622;2022-11-21T15:51:26;27.38;;;21.88;;
23730;SDS011;12046;44.702;10.622;2022-11-21T15:54:05;26.38;;;21.48;;
23730;SDS011;12046;44.702;10.622;2022-11-21T15:56:35;27.55;;;21.02;;
23730;SDS011;12046;44.702;10.622;2022-11-21T15:59:01;28.77;;;22.13;;
23730;SDS011;12046;44.702;10.622;2022-11-21T16:01:28;29.80;;;21.52;;
23730;SDS011;12046;44.702;10.622;2022-11-21T16:03:55;30.85;;;21.42;;
23730;SDS011;12046;44.702;10.622;2022-11-21T16:06:23;27.75;;;22.98;;
23730;SDS011;12046;44.702;10.622;2022-11-21T16:08:49;27.35;;;23.27;;
23730;SDS011;12046;44.702;10.622;2022-11-21T16:13:49;27.23;;;22.58;;
23730;SDS011;12046;44.702;10.622;2022-11-21T16:16:17;28.42;;;22.00;;
23730;SDS011;12046;44.702;10.622;2022-11-21T16:18:43;30.40;;;22.80;;
23730;SDS011;12046;44.702;10.622;2022-11-21T16:21:10;29.40;;;24.35;;
23730;SDS011;12046;44.702;10.622;2022-11-21T16:23:37;29.42;;;22.45;;
23730;SDS011;12046;44.702;10.622;2022-11-21T16:26:04;28.55;;;22.92;;
23730;SDS011;12046;44.702;10.622;2022-11-21T16:28:31;30.58;;;24.67;;
23730;SDS011;12046;44.702;10.622;2022-11-21T16:30:57;32.17;;;22.65;;
23730;SDS011;12046;44.702;10.622;2022-11-21T16:33:24;31.48;;;23.05;;
23730;SDS011;12046;44.702;10.622;2022-11-21T16:35:51;31.35;;;22.77;;
23730;SDS011;12046;44.702;10.622;2022-11-21T16:38:25;30.30;;;22.98;;
23730;SDS011;12046;44.702;10.622;2022-11-21T16:40:59;27.27;;;22.15;;
23730;SDS011;12046;44.702;10.622;2022-11-21T16:43:31;32.85;;;22.65;;
23730;SDS011;12046;44.702;10.622;2022-11-21T16:46:09;27.83;;;21.75;;
23730;SDS011;12046;44.702;10.622;2022-11-21T16:48:46;31.13;;;23.40;;
23730;SDS011;12046;44.702;10.622;2022-11-21T16:51:18;27.90;;;22.95;;